Time;durP1;ratioP1;P1;durP2;ratioP2;P2;SDS_P1;SDS_P2;PMS_P1;PMS_P2;Temp;Humidity;BMP_temperature;BMP_pressure;BME280_temperature;BME280_humidity;BME280_pressure;Samples;Min_cycle;Max_cycle;Signal;HPM_P1;HPM_P2
2021/12/04 00:01:37;;;;;;;13.02;8.73;;;;;;;1.26;100.00;98682.91;5043537;28;20033;-86
2021/12/04 00:04:08;;;;;;;12.35;8.43;;;;;;;1.24;100.00;98689.09;5043096;28;20017;-86
2021/12/04 00:06:41;;;;;;;12.88;8.93;;;;;;;1.24;100.00;98678.56;5044096;28;20047;-86
2021/12/04 00:09:10;;;;;;;12.93;9.05;;;;;;;1.26;100.00;98672.38;5042242;28;20110;-86
2021/12/04 00:11:41;;;;;;;14.90;8.98;;;;;;;1.30;100.00;98674.03;5038754;28;20035;-86
2021/12/04 00:14:15;;;;;;;14.85;8.80;;;;;;;1.31;100.00;98667.03;5038777;28;20025;-86
2021/12/04 00:16:52;;;;;;;12.43;8.27;;;;;;;1.26;100.00;98666.25;5038780;28;20397;-87
2021/12/04 00:19:42;;;;;;;12.75;8.23;;;;;;;1.35;100.00;98666.06;5038265;28;20094;-85
2021/12/04 00:22:13;;;;;;;12.10;8.18;;;;;;;1.26;100.00;98666.25;5039227;28;20021;-86
2021/12/04 00:24:57;;;;;;;13.73;8.80;;;;;;;1.31;100.00;98660.00;5037366;28;20474;-86
2021/12/04 00:27:51;;;;;;;12.23;7.97;;;;;;;1.28;100.00;98659.19;5037763;28;20033;-85
2021/12/04 00:30:37;;;;;;;13.65;8.27;;;;;;;1.30;100.00;98652.13;4977894;28;20391;-86
2021/12/04 00:33:31;;;;;;;13.95;8.25;;;;;;;1.27;100.00;98647.78;4976402;28;20089;-86
2021/12/04 00:36:00;;;;;;;13.88;7.82;;;;;;;1.26;100.00;98645.22;5033718;28;20485;-85
2021/12/04 00:49:47;;;;;;;12.13;8.02;;;;;;;1.29;100.00;98627.59;5055991;28;20120;-85
2021/12/04 00:52:18;;;;;;;13.07;7.97;;;;;;;1.21;100.00;98630.38;5037462;28;20022;-86
2021/12/04 00:54:46;;;;;;;14.00;8.90;;;;;;;1.21;100.00;98626.91;5037356;28;20084;-86
2021/12/04 00:57:26;;;;;;;14.75;9.05;;;;;;;1.22;100.00;98625.97;5038318;28;20025;-85
2021/12/04 00:59:54;;;;;;;13.98;8.77;;;;;;;1.26;100.00;98624.16;5038733;28;20119;-83
2021/12/04 01:02:30;;;;;;;17.45;10.20;;;;;;;1.20;100.00;98623.38;5056015;28;20474;-85
2021/12/04 01:04:55;;;;;;;14.50;9.60;;;;;;;1.21;100.00;98621.63;5038590;28;20462;-84
2021/12/04 01:07:28;;;;;;;14.10;9.10;;;;;;;1.19;100.00;98619.00;5038281;28;20021;-85
2021/12/04 01:10:03;;;;;;;15.05;9.00;;;;;;;1.22;100.00;98613.69;5037243;28;20033;-85
2021/12/04 01:12:34;;;;;;;15.93;9.98;;;;;;;1.17;100.00;98612.91;5037553;28;20037;-86
2021/12/04 01:15:00;;;;;;;17.35;10.30;;;;;;;1.17;100.00;98612.91;5037847;28;20056;-85
2021/12/04 01:17:25;;;;;;;17.40;10.00;;;;;;;1.19;100.00;98613.75;5037296;28;20082;-85
2021/12/04 01:19:56;;;;;;;16.73;10.10;;;;;;;1.22;100.00;98616.34;5055163;28;20035;-85
2021/12/04 01:22:22;;;;;;;17.27;10.27;;;;;;;1.19;100.00;98612.88;5037787;28;20017;-85
2021/12/04 01:24:50;;;;;;;17.35;10.48;;;;;;;1.18;100.00;98604.16;5038024;28;20040;-86
2021/12/04 01:27:18;;;;;;;19.15;11.40;;;;;;;1.20;100.00;98598.84;5056695;28;20052;-86
2021/12/04 01:29:44;;;;;;;20.60;11.90;;;;;;;1.19;100.00;98600.59;5038946;28;20071;-85
2021/12/04 01:32:24;;;;;;;18.63;11.65;;;;;;;1.17;100.00;98594.50;5037987;28;20021;-85
2021/12/04 01:35:00;;;;;;;19.65;12.02;;;;;;;1.18;100.00;98591.00;5038794;28;20029;-86
2021/12/04 01:37:26;;;;;;;21.10;12.38;;;;;;;1.21;100.00;98587.44;5038962;28;20078;-85
2021/12/04 01:39:54;;;;;;;19.58;11.65;;;;;;;1.20;100.00;98588.34;5037444;28;20108;-85
2021/12/04 01:42:23;;;;;;;20.92;12.05;;;;;;;1.18;100.00;98590.13;5037050;28;20032;-85
2021/12/04 01:44:51;;;;;;;19.30;11.23;;;;;;;1.27;100.00;98589.06;5038517;28;20021;-86
2021/12/04 01:47:22;;;;;;;18.70;11.30;;;;;;;1.20;100.00;98583.94;5039068;28;20021;-86
2021/12/04 01:49:52;;;;;;;21.15;11.60;;;;;;;1.19;100.00;98576.06;5054387;28;20028;-84
2021/12/04 01:52:21;;;;;;;20.02;11.10;;;;;;;1.24;100.00;98568.97;5035931;28;20033;-85
2021/12/04 01:54:50;;;;;;;19.45;10.57;;;;;;;1.18;100.00;98569.97;5054729;28;20500;-85
2021/12/04 01:57:16;;;;;;;17.73;11.35;;;;;;;1.22;100.00;98571.63;5057520;28;20076;-87
2021/12/04 01:59:43;;;;;;;17.65;10.88;;;;;;;1.21;100.00;98574.31;5060760;28;20081;-86
2021/12/04 02:02:12;;;;;;;19.17;11.65;;;;;;;1.24;100.00;98576.84;5071036;28;20115;-87
2021/12/04 02:04:38;;;;;;;20.85;12.18;;;;;;;1.21;100.00;98576.94;5066568;28;20025;-87
2021/12/04 02:07:04;;;;;;;18.88;11.45;;;;;;;1.24;100.00;98576.00;5048600;28;20032;-87
2021/12/04 02:09:34;;;;;;;18.35;11.07;;;;;;;1.22;100.00;98578.66;5046894;28;20048;-86
2021/12/04 02:12:03;;;;;;;18.55;10.95;;;;;;;1.27;100.00;98581.19;5064658;28;20036;-86
2021/12/04 02:14:30;;;;;;;18.90;10.95;;;;;;;1.25;100.00;98580.34;5064464;28;20076;-86
2021/12/04 02:16:58;;;;;;;18.55;11.57;;;;;;;1.22;100.00;98576.00;5044360;28;20025;-87
2021/12/04 02:19:29;;;;;;;20.08;11.45;;;;;;;1.26;100.00;98574.22;5044119;28;20025;-86
2021/12/04 02:22:06;;;;;;;20.05;11.40;;;;;;;1.22;100.00;98574.25;5043721;28;20029;-87
2021/12/04 02:24:39;;;;;;;25.35;12.43;;;;;;;1.20;100.00;98567.28;5041333;28;20028;-86
2021/12/04 02:27:05;;;;;;;22.43;13.00;;;;;;;1.24;100.00;98563.69;5036790;28;20057;-85
2021/12/04 02:29:36;;;;;;;21.42;12.35;;;;;;;1.25;100.00;98561.94;5036006;28;20745;-85
2021/12/04 02:32:07;;;;;;;23.02;12.25;;;;;;;1.26;100.00;98563.69;5040683;28;20021;-86
2021/12/04 02:34:33;;;;;;;23.52;13.43;;;;;;;1.23;100.00;98554.09;5058658;28;20052;-85
2021/12/04 02:37:11;;;;;;;24.67;13.68;;;;;;;1.24;100.00;98545.28;5040697;28;20024;-86
2021/12/04 02:39:41;;;;;;;23.00;13.45;;;;;;;1.20;100.00;98546.25;5041477;28;20033;-85
2021/12/04 02:42:22;;;;;;;20.98;12.50;;;;;;;1.22;100.00;98550.59;5041794;28;20017;-86
2021/12/04 02:44:58;;;;;;;23.98;12.80;;;;;;;1.23;100.00;98551.47;5058521;28;20036;-86
2021/12/04 02:47:27;;;;;;;23.70;13.45;;;;;;;1.22;100.00;98542.72;5041487;28;20036;-86
2021/12/04 02:49:58;;;;;;;25.60;13.38;;;;;;;1.19;100.00;98540.13;5040570;28;20056;-86
2021/12/04 02:52:33;;;;;;;23.15;13.68;;;;;;;1.22;100.00;98533.94;5040202;28;20043;-85
2021/12/04 02:55:01;;;;;;;25.95;13.48;;;;;;;1.24;100.00;98531.31;5040619;28;20131;-85
2021/12/04 02:57:28;;;;;;;25.05;14.07;;;;;;;1.22;100.00;98521.66;5058979;28;20473;-86
2021/12/04 03:00:02;;;;;;;23.40;13.45;;;;;;;1.26;100.00;98521.63;5040684;28;20021;-85
2021/12/04 03:02:28;;;;;;;23.92;13.20;;;;;;;1.22;100.00;98511.16;5041061;28;20013;-87
2021/12/04 03:05:02;;;;;;;24.85;13.85;;;;;;;1.21;100.00;98505.94;5056685;28;20362;-86
2021/12/04 03:07:36;;;;;;;27.38;14.15;;;;;;;1.26;100.00;98504.06;5039342;28;20017;-86
2021/12/04 03:10:04;;;;;;;28.95;12.98;;;;;;;1.29;100.00;98497.88;5039412;28;20021;-86
2021/12/04 03:12:36;;;;;;;25.60;13.48;;;;;;;1.28;100.00;98501.41;5057389;28;20075;-85
2021/12/04 03:15:04;;;;;;;23.70;12.13;;;;;;;1.24;100.00;98494.50;5058042;28;20033;-85
2021/12/04 03:17:33;;;;;;;23.45;13.00;;;;;;;1.22;100.00;98495.38;5040322;28;20025;-85
2021/12/04 03:20:02;;;;;;;21.50;11.95;;;;;;;1.25;100.00;98481.28;5057843;28;20021;-86
2021/12/04 03:22:28;;;;;;;22.35;13.00;;;;;;;1.22;100.00;98482.22;5040101;28;20021;-85
2021/12/04 03:24:57;;;;;;;21.20;12.25;;;;;;;1.26;100.00;98472.53;5040604;28;20491;-85
2021/12/04 03:27:24;;;;;;;20.88;12.60;;;;;;;1.26;100.00;98466.38;5040121;28;20086;-85
2021/12/04 03:29:56;;;;;;;21.67;12.77;;;;;;;1.24;100.00;98460.31;5040184;28;20037;-85
2021/12/04 03:43:10;;;;;;;24.17;13.10;;;;;;;1.22;100.00;98436.66;5055180;28;20466;-86
2021/12/04 03:45:37;;;;;;;28.13;13.50;;;;;;;1.22;100.00;98427.00;5056464;28;20033;-85
2021/12/04 03:48:10;;;;;;;26.65;13.85;;;;;;;1.17;100.00;98431.50;5038999;28;20027;-85
2021/12/04 03:50:35;;;;;;;26.23;14.48;;;;;;;1.20;100.00;98441.97;5039909;28;20031;-85
2021/12/04 03:53:01;;;;;;;24.42;13.45;;;;;;;1.22;100.00;98423.50;5040680;28;20115;-85
2021/12/04 03:55:26;;;;;;;25.05;13.93;;;;;;;1.22;100.00;98434.91;5058227;28;20023;-84
2021/12/04 03:57:52;;;;;;;23.25;13.48;;;;;;;1.18;100.00;98425.34;5040932;28;20021;-84
2021/12/04 04:00:18;;;;;;;24.52;13.63;;;;;;;1.15;100.00;98430.66;5058832;28;20024;-85
2021/12/04 04:02:43;;;;;;;24.73;13.52;;;;;;;1.16;100.00;98429.75;5058634;28;20051;-85
2021/12/04 04:05:09;;;;;;;24.17;13.52;;;;;;;1.28;100.00;98438.28;5040197;28;20025;-84
2021/12/04 04:07:34;;;;;;;25.48;13.73;;;;;;;1.24;100.00;98434.84;5040943;28;20031;-82
2021/12/04 04:10:00;;;;;;;21.17;13.13;;;;;;;1.22;100.00;98429.63;5041675;28;20033;-85
2021/12/04 04:12:25;;;;;;;23.23;13.40;;;;;;;1.24;100.00;98423.50;5045635;28;20421;-85
2021/12/04 04:14:51;;;;;;;21.90;11.95;;;;;;;1.28;100.00;98425.16;5045979;28;20024;-86
2021/12/04 04:17:16;;;;;;;20.90;12.70;;;;;;;1.22;100.00;98427.00;5037802;28;20143;-85
2021/12/04 04:19:41;;;;;;;22.50;13.45;;;;;;;1.21;100.00;98427.91;5056624;28;20031;-85
2021/12/04 04:22:07;;;;;;;22.83;12.07;;;;;;;1.24;100.00;98426.13;5058483;28;20036;-84
2021/12/04 04:24:33;;;;;;;20.58;12.30;;;;;;;1.27;100.00;98420.78;5060641;28;20057;-85
2021/12/04 04:26:59;;;;;;;19.92;11.90;;;;;;;1.30;100.00;98426.84;5041878;28;20029;-85
2021/12/04 04:29:25;;;;;;;20.63;11.93;;;;;;;1.29;100.00;98419.00;5059696;28;20512;-85
2021/12/04 04:31:52;;;;;;;18.98;11.43;;;;;;;1.39;100.00;98417.88;5060089;28;20033;-85
2021/12/04 04:34:28;;;;;;;18.38;10.98;;;;;;;1.31;100.00;98422.44;5059894;28;20044;-84
2021/12/04 04:58:55;;;;;;;21.83;11.95;;;;;;;1.31;100.00;98417.19;5056128;28;20566;-85
2021/12/04 05:14:33;;;;;;;20.75;12.18;;;;;;;1.35;100.00;98397.81;5058281;28;20037;-84
2021/12/04 05:19:54;;;;;;;21.52;12.25;;;;;;;1.36;100.00;98389.03;5043287;28;20116;-86
2021/12/04 05:22:21;;;;;;;19.77;11.70;;;;;;;1.35;100.00;98397.81;5040802;28;20029;-83
2021/12/04 05:24:46;;;;;;;20.70;11.90;;;;;;;1.34;100.00;98396.09;5057518;28;20378;-85
2021/12/04 05:27:13;;;;;;;20.20;11.55;;;;;;;1.35;100.00;98392.53;5038961;28;20504;-87
2021/12/04 05:29:38;;;;;;;23.42;11.95;;;;;;;1.35;100.00;98397.81;5035787;28;20047;-86
2021/12/04 05:32:05;;;;;;;19.75;11.93;;;;;;;1.34;100.00;98396.09;5035926;28;20470;-86
2021/12/04 05:34:31;;;;;;;21.10;11.73;;;;;;;1.44;100.00;98392.31;5036082;28;20021;-85
2021/12/04 05:36:57;;;;;;;19.10;10.85;;;;;;;1.48;100.00;98394.88;5036458;28;20017;-85
2021/12/04 05:39:23;;;;;;;18.85;10.68;;;;;;;1.47;100.00;98393.19;5036966;28;20051;-86
2021/12/04 05:41:48;;;;;;;16.60;10.65;;;;;;;1.41;100.00;98381.91;5036753;28;20025;-86
2021/12/04 05:44:21;;;;;;;17.90;11.38;;;;;;;1.40;100.00;98388.03;5037538;28;20025;-86
2021/12/04 05:46:54;;;;;;;16.95;10.70;;;;;;;1.44;100.00;98392.31;5055440;28;20017;-86
2021/12/04 05:50:01;;;;;;;17.60;10.13;;;;;;;1.42;100.00;98388.88;5037505;28;20025;-86
2021/12/04 05:52:34;;;;;;;18.60;11.00;;;;;;;1.38;100.00;98387.22;5053109;28;20033;-85
2021/12/04 05:57:34;;;;;;;17.95;10.88;;;;;;;1.42;100.00;98394.13;5057778;28;20051;-85
2021/12/04 06:00:00;;;;;;;18.40;11.10;;;;;;;1.45;100.00;98394.06;5041172;28;20025;-86
2021/12/04 06:02:25;;;;;;;18.23;11.20;;;;;;;1.43;100.00;98393.25;5043117;28;20025;-85
2021/12/04 06:04:50;;;;;;;16.55;10.75;;;;;;;1.41;100.00;98391.53;5061417;28;20051;-86
2021/12/04 06:07:15;;;;;;;19.13;11.10;;;;;;;1.43;100.00;98395.88;5040611;28;20036;-85
2021/12/04 06:09:41;;;;;;;18.05;10.48;;;;;;;1.38;100.00;98392.47;5042345;28;20028;-85
2021/12/04 06:12:08;;;;;;;17.25;10.30;;;;;;;1.43;100.00;98393.25;5042674;28;20028;-86
2021/12/04 06:14:34;;;;;;;16.85;10.30;;;;;;;1.45;100.00;98394.06;5043131;28;20115;-87
2021/12/04 06:17:00;;;;;;;18.00;9.85;;;;;;;1.47;100.00;98383.50;5039979;28;20025;-87
2021/12/04 06:25:09;;;;;;;18.58;10.48;;;;;;;1.42;100.00;98383.59;5023185;28;20377;-88
2021/12/04 06:27:35;;;;;;;18.65;10.55;;;;;;;1.44;100.00;98387.06;5038686;28;20036;-89
2021/12/04 06:30:02;;;;;;;17.40;10.18;;;;;;;1.41;100.00;98379.25;5056912;28;20396;-87
2021/12/04 06:32:28;;;;;;;16.48;10.10;;;;;;;1.38;100.00;98370.56;5038803;28;20104;-86
2021/12/04 06:34:53;;;;;;;20.48;11.18;;;;;;;1.40;100.00;98377.53;5058174;28;20489;-85
2021/12/04 06:37:18;;;;;;;17.95;10.05;;;;;;;1.41;100.00;98381.91;5039557;28;20545;-87
2021/12/04 06:39:44;;;;;;;18.00;10.73;;;;;;;1.38;100.00;98371.44;5039382;28;20020;-89
2021/12/04 06:42:09;;;;;;;17.20;10.35;;;;;;;1.40;100.00;98380.16;5038981;28;20027;-86
2021/12/04 06:44:34;;;;;;;17.02;10.15;;;;;;;1.43;100.00;98380.09;5038728;28;20017;-87
2021/12/04 06:47:00;;;;;;;17.25;10.38;;;;;;;1.44;100.00;98381.78;5057157;28;20056;-86
2021/12/04 06:49:31;;;;;;;14.57;9.50;;;;;;;1.41;100.00;98381.91;5038274;28;20524;-88
2021/12/04 06:51:59;;;;;;;16.40;9.10;;;;;;;1.45;100.00;98377.41;5039338;28;20047;-87
2021/12/04 06:54:36;;;;;;;15.25;9.38;;;;;;;1.47;100.00;98378.22;5038636;28;20547;-87
2021/12/04 06:57:03;;;;;;;13.60;9.13;;;;;;;1.47;100.00;98382.66;5039133;28;20047;-87
2021/12/04 06:59:31;;;;;;;15.32;9.18;;;;;;;1.53;100.00;98382.50;5038882;28;20025;-87
2021/12/04 07:01:57;;;;;;;16.63;9.80;;;;;;;1.48;100.00;98377.34;5039023;28;20084;-88
2021/12/04 07:04:28;;;;;;;17.52;10.20;;;;;;;1.53;100.00;98374.59;5038202;28;20055;-87
2021/12/04 07:06:54;;;;;;;15.93;9.30;;;;;;;1.48;100.00;98376.47;5038939;28;20056;-88
2021/12/04 07:09:19;;;;;;;15.07;9.07;;;;;;;1.51;100.00;98376.41;5055939;28;20044;-87
2021/12/04 07:11:44;;;;;;;15.93;9.57;;;;;;;1.47;100.00;98372.97;5055721;28;20043;-88
2021/12/04 07:14:09;;;;;;;14.93;9.10;;;;;;;1.50;100.00;98374.66;5038109;28;20504;-87
2021/12/04 07:16:35;;;;;;;16.55;8.80;;;;;;;1.57;100.00;98368.38;5037977;28;20482;-89
2021/12/04 07:19:00;;;;;;;14.38;8.73;;;;;;;1.51;100.00;98368.50;5037687;28;20025;-88
2021/12/04 07:21:25;;;;;;;16.40;9.02;;;;;;;1.55;100.00;98368.41;5037923;28;20071;-87
2021/12/04 07:23:51;;;;;;;14.85;9.00;;;;;;;1.51;100.00;98372.00;5055968;28;20025;-87
2021/12/04 07:26:18;;;;;;;14.30;9.02;;;;;;;1.55;100.00;98370.16;5039134;28;20029;-88
2021/12/04 07:28:43;;;;;;;15.20;9.35;;;;;;;1.56;100.00;98379.78;5038559;28;20059;-87
2021/12/04 07:31:09;;;;;;;14.90;9.55;;;;;;;1.60;100.00;98376.19;5038749;28;20511;-88
2021/12/04 07:33:34;;;;;;;14.70;9.48;;;;;;;1.56;100.00;98367.50;5038440;28;20021;-88
2021/12/04 07:36:00;;;;;;;17.88;10.50;;;;;;;1.59;100.00;98363.94;5039218;28;20032;-86
2021/12/04 07:38:27;;;;;;;19.08;10.07;;;;;;;1.61;100.00;98366.53;5039952;28;20036;-86
2021/12/04 07:40:52;;;;;;;17.80;10.35;;;;;;;1.64;100.00;98355.94;5039612;28;20462;-87
2021/12/04 07:43:17;;;;;;;18.15;10.57;;;;;;;1.61;100.00;98369.16;5057330;28;20031;-87
2021/12/04 07:45:43;;;;;;;18.85;11.10;;;;;;;1.62;100.00;98365.63;5056494;28;20114;-87
2021/12/04 07:48:08;;;;;;;18.15;11.45;;;;;;;1.63;100.00;98349.78;5056006;28;20155;-87
2021/12/04 07:50:35;;;;;;;18.38;11.50;;;;;;;1.61;100.00;98354.25;5056214;28;20401;-88
2021/12/04 07:53:00;;;;;;;22.52;11.77;;;;;;;1.67;100.00;98354.09;5038130;28;20021;-88
2021/12/04 07:55:27;;;;;;;19.65;11.68;;;;;;;1.72;100.00;98353.09;5056366;28;20031;-88
2021/12/04 07:57:52;;;;;;;21.65;12.52;;;;;;;1.67;100.00;98359.38;5038088;28;20051;-86
2021/12/04 08:00:20;;;;;;;23.02;12.95;;;;;;;1.73;100.00;98357.44;5056636;28;20056;-87
2021/12/04 08:02:48;;;;;;;20.73;11.80;;;;;;;1.73;100.00;98347.78;5038430;28;20487;-87
2021/12/04 08:05:13;;;;;;;25.00;12.02;;;;;;;1.74;100.00;98353.94;5038935;28;20471;-87
2021/12/04 08:07:39;;;;;;;22.50;13.10;;;;;;;1.72;100.00;98364.50;5038757;28;20025;-88
2021/12/04 08:10:07;;;;;;;21.50;12.68;;;;;;;1.74;100.00;98361.81;5038287;28;20025;-87
2021/12/04 08:12:33;;;;;;;24.90;13.52;;;;;;;1.74;100.00;98361.81;5057113;28;20036;-88
2021/12/04 08:14:58;;;;;;;26.63;13.40;;;;;;;1.74;100.00;98361.81;5038653;28;20025;-86
2021/12/04 08:17:25;;;;;;;25.85;13.73;;;;;;;1.80;100.00;98355.56;5039524;28;20130;-86
2021/12/04 08:19:51;;;;;;;26.85;15.27;;;;;;;1.77;100.00;98354.72;5038631;28;20112;-87
2021/12/04 08:22:16;;;;;;;29.50;14.48;;;;;;;1.78;100.00;98348.53;5055431;28;20114;-87
2021/12/04 08:24:44;;;;;;;29.85;14.93;;;;;;;1.81;100.00;98349.38;5037448;28;20033;-86
2021/12/04 08:27:10;;;;;;;28.17;15.20;;;;;;;1.78;100.00;98347.66;5039570;28;20432;-86
2021/12/04 08:29:35;;;;;;;26.95;14.45;;;;;;;1.80;100.00;98353.78;5038853;28;20473;-86
2021/12/04 08:32:00;;;;;;;28.30;16.05;;;;;;;1.82;100.00;98362.50;5041136;28;20541;-86
2021/12/04 08:34:26;;;;;;;26.65;13.40;;;;;;;1.85;100.00;98359.81;5055216;28;20470;-86
2021/12/04 08:36:52;;;;;;;25.73;14.32;;;;;;;1.87;100.00;98363.25;5055093;28;20053;-86
2021/12/04 08:39:18;;;;;;;27.95;15.65;;;;;;;1.86;100.00;98356.25;5037758;28;20111;-87
2021/12/04 08:41:43;;;;;;;24.80;14.07;;;;;;;1.87;100.00;98357.13;5042646;28;20049;-87
2021/12/04 08:44:09;;;;;;;23.67;13.73;;;;;;;1.86;100.00;98356.25;5058392;28;20501;-88
2021/12/04 08:46:35;;;;;;;23.08;14.00;;;;;;;1.91;100.00;98348.22;5059045;28;20021;-86
2021/12/04 08:49:02;;;;;;;22.95;13.48;;;;;;;2.01;100.00;98338.34;5059778;28;20108;-83
2021/12/04 08:51:29;;;;;;;23.55;13.07;;;;;;;2.06;100.00;98346.97;5057717;28;20044;-82
2021/12/04 08:53:54;;;;;;;23.63;12.88;;;;;;;2.08;100.00;98345.16;5060805;28;20024;-87
2021/12/04 08:56:20;;;;;;;22.08;12.43;;;;;;;2.06;100.00;98343.47;5041750;28;20029;-86
2021/12/04 08:58:45;;;;;;;23.85;12.95;;;;;;;2.12;100.00;98349.44;5039851;28;20408;-86
2021/12/04 09:01:22;;;;;;;18.88;11.30;;;;;;;2.12;100.00;98349.44;5040453;28;20071;-86
2021/12/04 09:03:48;;;;;;;21.48;12.65;;;;;;;2.16;100.00;98352.00;5040154;28;20024;-86
2021/12/04 09:06:17;;;;;;;19.45;11.35;;;;;;;2.23;100.00;98340.38;5058038;28;20052;-86
2021/12/04 09:08:43;;;;;;;20.27;11.02;;;;;;;2.21;100.00;98329.03;5055596;28;20025;-85
2021/12/04 09:11:17;;;;;;;21.08;11.27;;;;;;;2.24;100.00;98334.22;5036607;28;20017;-86
2021/12/04 09:13:44;;;;;;;18.67;10.88;;;;;;;2.33;100.00;98349.75;5037821;28;20027;-85
2021/12/04 09:16:14;;;;;;;16.92;9.15;;;;;;;2.36;100.00;98350.59;5038144;28;20029;-86
2021/12/04 09:18:40;;;;;;;13.90;9.02;;;;;;;2.39;100.00;98337.34;5039882;28;20053;-87
2021/12/04 09:21:06;;;;;;;14.40;9.07;;;;;;;2.43;100.00;98338.97;5040290;28;20041;-86
2021/12/04 09:23:38;;;;;;;15.95;10.05;;;;;;;2.50;100.00;98327.34;5039828;28;20500;-86
2021/12/04 09:26:05;;;;;;;17.52;10.43;;;;;;;2.51;100.00;98323.81;5044316;28;20055;-86
2021/12/04 09:28:42;;;;;;;18.90;10.77;;;;;;;2.58;100.00;98329.75;5051809;28;20029;-84
2021/12/04 09:31:24;;;;;;;17.30;10.23;;;;;;;2.59;100.00;98328.84;5069858;28;20577;-85
2021/12/04 09:34:21;;;;;;;20.48;11.00;;;;;;;2.70;100.00;98333.81;5047525;28;20562;-87
2021/12/04 10:12:20;;;;;;;13.15;8.38;;;;;;;3.27;100.00;98289.94;5061616;28;20516;-84
2021/12/04 10:15:07;;;;;;;12.70;7.63;;;;;;;3.26;100.00;98299.63;5062755;28;20037;-84
2021/12/04 10:23:13;;;;;;;14.57;9.00;;;;;;;3.25;100.00;98279.41;5060654;28;20385;-84
2021/12/04 10:33:49;;;;;;;19.42;11.93;;;;;;;3.05;100.00;98275.66;5060832;28;20032;-84
2021/12/04 10:36:38;;;;;;;21.08;12.88;;;;;;;2.93;100.00;98255.81;5043115;28;20112;-85
2021/12/04 10:39:08;;;;;;;20.58;12.38;;;;;;;2.96;100.00;98258.34;5044990;28;20036;-84
2021/12/04 10:41:39;;;;;;;21.55;12.75;;;;;;;2.89;100.00;98262.06;5043279;28;20468;-86
2021/12/04 10:44:13;;;;;;;22.00;13.25;;;;;;;2.95;100.00;98255.75;5041073;28;20071;-85
2021/12/04 10:46:38;;;;;;;;;;;;;;;2.80;100.00;98257.97;5042281;28;20021;-86
2021/12/04 10:49:17;;;;;;;19.30;11.73;;;;;;;2.84;100.00;98253.44;5042546;28;19947;-85
2021/12/04 10:52:01;;;;;;;17.33;11.77;;;;;;;2.73;100.00;98243.25;5043850;28;20108;-84
2021/12/04 10:54:31;;;;;;;18.10;11.80;;;;;;;2.79;100.00;98237.78;5045934;28;20029;-85
2021/12/04 11:00:03;;;;;;;20.58;12.07;;;;;;;2.81;100.00;98221.94;5060121;28;20039;-83
2021/12/04 11:02:42;;;;;;;18.60;11.40;;;;;;;2.88;100.00;98212.91;5040310;28;20017;-84
2021/12/04 11:22:34;;;;;;;18.70;10.85;;;;;;;2.87;100.00;98185.69;5059670;28;20021;-84
2021/12/04 11:36:17;;;;;;;19.42;11.57;;;;;;;2.86;100.00;98188.38;5059563;28;20059;-83
2021/12/04 11:38:52;;;;;;;19.77;11.93;;;;;;;2.79;100.00;98183.28;5056224;28;20394;-83
2021/12/04 11:44:03;;;;;;;22.67;12.60;;;;;;;2.83;100.00;98173.53;5058202;28;20070;-85
2021/12/04 11:49:09;;;;;;;25.17;14.18;;;;;;;2.85;100.00;98176.09;5059735;28;20496;-85
2021/12/04 11:51:34;;;;;;;22.10;12.07;;;;;;;2.88;100.00;98170.75;5042515;28;20458;-84
2021/12/04 11:54:10;;;;;;;20.35;12.30;;;;;;;2.85;100.00;98168.19;5041658;28;20078;-84
2021/12/04 11:56:35;;;;;;;21.92;12.45;;;;;;;2.92;100.00;98160.94;5045385;28;20040;-85
2021/12/04 11:59:01;;;;;;;21.88;11.93;;;;;;;2.78;100.00;98155.19;5049288;28;20470;-85
2021/12/04 12:01:31;;;;;;;20.83;12.02;;;;;;;2.73;100.00;98141.31;5064077;28;20025;-85
2021/12/04 12:04:00;;;;;;;23.50;13.63;;;;;;;2.71;100.00;98135.22;5045220;28;20017;-84
2021/12/04 12:06:41;;;;;;;23.60;12.35;;;;;;;2.64;100.00;98131.06;5045604;28;20052;-84
2021/12/04 12:09:15;;;;;;;30.45;15.15;;;;;;;2.54;100.00;98126.13;5041013;28;20024;-85
2021/12/04 12:12:05;;;;;;;22.20;13.00;;;;;;;2.59;100.00;98122.44;5045138;28;20029;-85
2021/12/04 12:14:48;;;;;;;25.17;15.25;;;;;;;2.58;100.00;98121.59;5043272;28;20574;-84
2021/12/04 12:17:27;;;;;;;23.23;14.52;;;;;;;2.59;100.00;98107.50;5038677;28;20025;-84
2021/12/04 12:19:53;;;;;;;20.73;12.60;;;;;;;2.54;100.00;98101.53;5040314;28;20428;-82
2021/12/04 12:33:57;;;;;;;18.90;10.98;;;;;;;2.67;100.00;98075.63;5062995;28;20036;-84
2021/12/04 12:36:28;;;;;;;17.42;10.57;;;;;;;2.50;100.00;98066.50;5051235;28;20025;-84
2021/12/04 12:39:04;;;;;;;16.52;9.90;;;;;;;2.59;100.00;98056.59;5050251;28;20021;-83
2021/12/04 12:41:43;;;;;;;16.85;9.95;;;;;;;2.46;100.00;98054.34;5050168;28;20051;-84
2021/12/04 12:44:29;;;;;;;20.42;13.18;;;;;;;2.60;100.00;98063.59;5049368;28;20017;-84
2021/12/04 12:47:05;;;;;;;16.85;9.88;;;;;;;2.63;100.00;98060.84;5049605;28;20024;-82
2021/12/04 12:49:38;;;;;;;18.15;10.85;;;;;;;2.58;100.00;98055.72;5047857;28;20082;-85
2021/12/04 12:52:13;;;;;;;16.25;10.07;;;;;;;2.49;100.00;98051.63;5062242;28;20032;-84
2021/12/04 12:54:58;;;;;;;16.17;9.55;;;;;;;2.50;100.00;98057.78;5043893;28;20028;-84
2021/12/04 12:57:30;;;;;;;14.63;9.10;;;;;;;2.54;100.00;98048.84;5043174;28;20032;-85
2021/12/04 13:14:15;;;;;;;;;;;;;;;2.62;100.00;98015.19;5054897;28;20036;-87
2021/12/04 13:16:43;;;;;;;11.27;7.43;;;;;;;2.67;100.00;98005.34;5036821;28;19916;-86
2021/12/04 13:19:12;;;;;;;11.90;7.25;;;;;;;2.60;100.00;98000.34;5037076;28;20020;-85
2021/12/04 13:21:41;;;;;;;12.10;7.10;;;;;;;2.59;100.00;98001.25;5039031;28;20044;-87
2021/12/04 13:24:10;;;;;;;13.88;8.52;;;;;;;2.49;100.00;97998.94;5045341;28;20387;-84
2021/12/04 13:26:38;;;;;;;12.48;7.75;;;;;;;2.50;100.00;97991.91;5045088;28;20048;-87
2021/12/04 13:29:06;;;;;;;9.95;6.85;;;;;;;2.54;100.00;97997.00;5048906;28;20031;-87
2021/12/04 13:31:34;;;;;;;10.98;7.13;;;;;;;2.50;100.00;97989.28;5043161;28;20031;-87
2021/12/04 13:33:59;;;;;;;9.80;6.30;;;;;;;2.62;100.00;97980.06;5040873;28;20065;-86
2021/12/04 13:36:28;;;;;;;10.00;6.32;;;;;;;2.50;100.00;97989.28;5043205;28;20047;-87
2021/12/04 13:38:57;;;;;;;8.93;6.35;;;;;;;2.49;100.00;97996.31;5055491;28;20036;-87
2021/12/04 13:41:39;;;;;;;10.95;8.07;;;;;;;2.55;100.00;97993.44;5037423;28;20028;-87
2021/12/04 13:44:06;;;;;;;8.95;6.43;;;;;;;2.53;100.00;98002.31;5040228;28;20405;-86
2021/12/04 13:46:43;;;;;;;9.05;6.22;;;;;;;2.63;100.00;98000.25;5055506;28;20079;-88
2021/12/04 13:49:11;;;;;;;9.60;6.18;;;;;;;2.58;100.00;97995.13;5038118;28;20799;-87
2021/12/04 13:51:37;;;;;;;7.80;5.50;;;;;;;2.63;100.00;97979.16;5055525;28;20028;-86
2021/12/04 13:54:03;;;;;;;8.15;5.60;;;;;;;2.68;100.00;97974.59;5038479;28;20025;-87
2021/12/04 13:56:30;;;;;;;8.45;5.78;;;;;;;2.54;100.00;97983.84;5036983;28;20067;-85
2021/12/04 13:58:58;;;;;;;9.05;5.78;;;;;;;2.51;100.00;97983.94;5053934;28;20041;-86
2021/12/04 14:01:34;;;;;;;8.45;5.75;;;;;;;2.50;100.00;97986.63;5036069;28;20108;-88
2021/12/04 14:04:02;;;;;;;8.23;5.50;;;;;;;2.43;100.00;97989.47;5036722;28;20016;-88
2021/12/04 14:06:29;;;;;;;7.22;5.90;;;;;;;2.44;100.00;97992.97;5036148;28;20029;-86
2021/12/04 14:08:55;;;;;;;8.57;5.97;;;;;;;2.48;100.00;97994.56;5053967;28;20167;-86
2021/12/04 14:11:34;;;;;;;8.80;5.47;;;;;;;2.47;100.00;97992.00;5036402;28;20120;-87
2021/12/04 14:14:09;;;;;;;7.93;5.70;;;;;;;2.52;100.00;97980.41;5036624;28;20021;-87
2021/12/04 14:16:34;;;;;;;9.02;5.95;;;;;;;2.52;100.00;97985.66;5037526;28;20116;-85
2021/12/04 14:19:10;;;;;;;13.90;9.30;;;;;;;2.48;100.00;97978.75;5035807;28;20063;-85
2021/12/04 14:21:45;;;;;;;10.68;6.78;;;;;;;2.41;100.00;97967.59;5035500;28;20021;-85
2021/12/04 14:24:10;;;;;;;9.40;7.07;;;;;;;2.42;100.00;97963.19;5035906;28;20027;-86
2021/12/04 14:26:35;;;;;;;11.07;8.00;;;;;;;2.45;100.00;97957.78;5054721;28;20103;-83
2021/12/04 14:29:00;;;;;;;8.98;6.45;;;;;;;2.48;100.00;97959.47;5057254;28;20051;-85
2021/12/04 14:31:26;;;;;;;8.90;6.18;;;;;;;2.53;100.00;97966.28;5057299;28;20097;-86
2021/12/04 14:33:51;;;;;;;8.38;5.25;;;;;;;2.52;100.00;97972.50;5057031;28;20036;-86